sensor_id;sensor_type;location;lat;lon;timestamp;temperature;humidity
69503;SHT31;56704;54.242;12.442;2022-12-18T00:02:11;-6.82;93.18
69503;SHT31;56704;54.242;12.442;2022-12-18T00:04:38;-6.85;93.05
69503;SHT31;56704;54.242;12.442;2022-12-18T00:07:05;-6.93;93.43
69503;SHT31;56704;54.242;12.442;2022-12-18T00:09:33;-6.93;93.50
69503;SHT31;56704;54.242;12.442;2022-12-18T00:11:59;-6.89;93.74
69503;SHT31;56704;54.242;12.442;2022-12-18T00:14:26;-6.95;93.75
69503;SHT31;56704;54.242;12.442;2022-12-18T00:16:52;-6.95;94.04
69503;SHT31;56704;54.242;12.442;2022-12-18T00:19:19;-6.93;93.75
69503;SHT31;56704;54.242;12.442;2022-12-18T00:21:46;-6.91;93.96
69503;SHT31;56704;54.242;12.442;2022-12-18T00:24:12;-6.95;93.95
69503;SHT31;56704;54.242;12.442;2022-12-18T00:26:40;-6.99;93.75
69503;SHT31;56704;54.242;12.442;2022-12-18T00:29:11;-7.10;93.77
69503;SHT31;56704;54.242;12.442;2022-12-18T00:31:40;-7.23;93.52
69503;SHT31;56704;54.242;12.442;2022-12-18T00:34:08;-7.28;94.28
69503;SHT31;56704;54.242;12.442;2022-12-18T00:36:35;-7.40;93.98
69503;SHT31;56704;54.242;12.442;2022-12-18T00:39:04;-7.44;94.35
69503;SHT31;56704;54.242;12.442;2022-12-18T00:41:31;-7.44;95.17
69503;SHT31;56704;54.242;12.442;2022-12-18T00:44:18;-7.47;95.51
69503;SHT31;56704;54.242;12.442;2022-12-18T00:46:46;-7.44;95.74
69503;SHT31;56704;54.242;12.442;2022-12-18T00:49:13;-7.28;95.38
69503;SHT31;56704;54.242;12.442;2022-12-18T00:51:40;-7.31;94.88
69503;SHT31;56704;54.242;12.442;2022-12-18T00:54:07;-7.27;94.70
69503;SHT31;56704;54.242;12.442;2022-12-18T00:56:35;-7.24;94.23
69503;SHT31;56704;54.242;12.442;2022-12-18T00:59:02;-7.19;94.41
69503;SHT31;56704;54.242;12.442;2022-12-18T01:01:30;-7.22;94.70
69503;SHT31;56704;54.242;12.442;2022-12-18T01:03:57;-7.17;94.70
69503;SHT31;56704;54.242;12.442;2022-12-18T01:06:24;-7.09;93.96
69503;SHT31;56704;54.242;12.442;2022-12-18T01:08:50;-7.13;94.28
69503;SHT31;56704;54.242;12.442;2022-12-18T01:11:19;-7.14;93.85
69503;SHT31;56704;54.242;12.442;2022-12-18T01:13:46;-7.20;93.93
69503;SHT31;56704;54.242;12.442;2022-12-18T01:16:14;-7.23;94.25
69503;SHT31;56704;54.242;12.442;2022-12-18T01:18:42;-7.23;94.17
69503;SHT31;56704;54.242;12.442;2022-12-18T01:21:11;-7.27;94.00
69503;SHT31;56704;54.242;12.442;2022-12-18T01:23:38;-7.38;94.25
69503;SHT31;56704;54.242;12.442;2022-12-18T01:26:06;-7.45;94.38
69503;SHT31;56704;54.242;12.442;2022-12-18T01:28:32;-7.50;94.08
69503;SHT31;56704;54.242;12.442;2022-12-18T01:31:12;-7.58;94.49
69503;SHT31;56704;54.242;12.442;2022-12-18T01:33:39;-7.64;94.78
69503;SHT31;56704;54.242;12.442;2022-12-18T01:36:08;-7.72;94.79
69503;SHT31;56704;54.242;12.442;2022-12-18T01:38:35;-7.71;95.10
69503;SHT31;56704;54.242;12.442;2022-12-18T01:41:01;-7.67;95.41
69503;SHT31;56704;54.242;12.442;2022-12-18T01:43:44;-7.65;95.21
69503;SHT31;56704;54.242;12.442;2022-12-18T01:46:11;-7.62;95.60
69503;SHT31;56704;54.242;12.442;2022-12-18T01:48:39;-7.61;95.40
69503;SHT31;56704;54.242;12.442;2022-12-18T01:51:09;-7.59;95.40
69503;SHT31;56704;54.242;12.442;2022-12-18T01:53:37;-7.61;95.57
69503;SHT31;56704;54.242;12.442;2022-12-18T01:56:05;-7.59;95.81
69503;SHT31;56704;54.242;12.442;2022-12-18T01:58:37;-7.64;95.73
69503;SHT31;56704;54.242;12.442;2022-12-18T02:01:05;-7.56;96.27
69503;SHT31;56704;54.242;12.442;2022-12-18T02:03:32;-7.64;96.15
69503;SHT31;56704;54.242;12.442;2022-12-18T02:06:01;-7.61;96.44
69503;SHT31;56704;54.242;12.442;2022-12-18T02:08:38;-7.52;96.26
69503;SHT31;56704;54.242;12.442;2022-12-18T02:11:12;-7.41;96.07
69503;SHT31;56704;54.242;12.442;2022-12-18T02:13:46;-7.34;95.91
69503;SHT31;56704;54.242;12.442;2022-12-18T02:16:19;-7.30;95.69
69503;SHT31;56704;54.242;12.442;2022-12-18T02:18:50;-7.27;95.29
69503;SHT31;56704;54.242;12.442;2022-12-18T02:21:25;-7.28;95.41
69503;SHT31;56704;54.242;12.442;2022-12-18T02:24:04;-7.34;95.39
69503;SHT31;56704;54.242;12.442;2022-12-18T02:26:42;-7.35;95.36
69503;SHT31;56704;54.242;12.442;2022-12-18T02:29:13;-7.44;94.93
69503;SHT31;56704;54.242;12.442;2022-12-18T02:31:45;-7.50;94.82
69503;SHT31;56704;54.242;12.442;2022-12-18T02:34:14;-7.62;94.88
69503;SHT31;56704;54.242;12.442;2022-12-18T02:36:42;-7.71;94.97
69503;SHT31;56704;54.242;12.442;2022-12-18T02:39:11;-7.78;95.19
69503;SHT31;56704;54.242;12.442;2022-12-18T02:41:40;-7.84;95.25
69503;SHT31;56704;54.242;12.442;2022-12-18T02:44:09;-7.91;95.53
69503;SHT31;56704;54.242;12.442;2022-12-18T02:46:39;-7.86;95.67
69503;SHT31;56704;54.242;12.442;2022-12-18T02:49:14;-7.91;95.68
69503;SHT31;56704;54.242;12.442;2022-12-18T02:51:49;-7.85;96.05
69503;SHT31;56704;54.242;12.442;2022-12-18T02:54:23;-7.82;95.96
69503;SHT31;56704;54.242;12.442;2022-12-18T02:56:55;-7.91;95.99
69503;SHT31;56704;54.242;12.442;2022-12-18T02:59:28;-7.93;95.89
69503;SHT31;56704;54.242;12.442;2022-12-18T03:02:00;-7.96;95.89
69503;SHT31;56704;54.242;12.442;2022-12-18T03:04:31;-7.92;95.83
69503;SHT31;56704;54.242;12.442;2022-12-18T03:07:03;-7.86;95.96
69503;SHT31;56704;54.242;12.442;2022-12-18T03:09:33;-7.81;95.84
69503;SHT31;56704;54.242;12.442;2022-12-18T03:12:08;-7.79;95.68
69503;SHT31;56704;54.242;12.442;2022-12-18T03:14:55;-7.84;95.81
69503;SHT31;56704;54.242;12.442;2022-12-18T03:17:25;-7.92;96.08
69503;SHT31;56704;54.242;12.442;2022-12-18T03:19:54;-7.86;96.05
69503;SHT31;56704;54.242;12.442;2022-12-18T03:22:23;-7.88;95.96
69503;SHT31;56704;54.242;12.442;2022-12-18T03:24:51;-7.86;96.12
69503;SHT31;56704;54.242;12.442;2022-12-18T03:27:21;-7.85;96.13
69503;SHT31;56704;54.242;12.442;2022-12-18T03:29:53;-7.91;96.00
69503;SHT31;56704;54.242;12.442;2022-12-18T03:32:28;-7.86;95.77
69503;SHT31;56704;54.242;12.442;2022-12-18T03:34:58;-7.91;95.85
69503;SHT31;56704;54.242;12.442;2022-12-18T03:37:27;-7.86;95.61
69503;SHT31;56704;54.242;12.442;2022-12-18T03:39:54;-7.84;95.80
69503;SHT31;56704;54.242;12.442;2022-12-18T03:42:27;-7.81;95.67
69503;SHT31;56704;54.242;12.442;2022-12-18T03:44:58;-7.84;95.68
69503;SHT31;56704;54.242;12.442;2022-12-18T03:47:30;-7.81;95.82
69503;SHT31;56704;54.242;12.442;2022-12-18T03:50:03;-7.85;95.72
69503;SHT31;56704;54.242;12.442;2022-12-18T03:52:36;-7.92;95.87
69503;SHT31;56704;54.242;12.442;2022-12-18T03:55:05;-7.91;95.55
69503;SHT31;56704;54.242;12.442;2022-12-18T03:57:35;-8.02;95.86
69503;SHT31;56704;54.242;12.442;2022-12-18T04:00:06;-8.12;95.60
69503;SHT31;56704;54.242;12.442;2022-12-18T04:02:34;-8.17;95.89
69503;SHT31;56704;54.242;12.442;2022-12-18T04:05:05;-8.22;95.84
69503;SHT31;56704;54.242;12.442;2022-12-18T04:07:33;-8.22;95.99
69503;SHT31;56704;54.242;12.442;2022-12-18T04:10:02;-8.22;95.97
69503;SHT31;56704;54.242;12.442;2022-12-18T04:12:29;-8.19;96.07
69503;SHT31;56704;54.242;12.442;2022-12-18T04:14:58;-8.17;96.07
69503;SHT31;56704;54.242;12.442;2022-12-18T04:17:24;-8.14;96.12
69503;SHT31;56704;54.242;12.442;2022-12-18T04:19:51;-8.16;96.18
69503;SHT31;56704;54.242;12.442;2022-12-18T04:22:18;-8.17;95.96
69503;SHT31;56704;54.242;12.442;2022-12-18T04:24:44;-8.17;95.71
69503;SHT31;56704;54.242;12.442;2022-12-18T04:27:11;-8.23;96.34
69503;SHT31;56704;54.242;12.442;2022-12-18T04:29:37;-8.22;95.98
69503;SHT31;56704;54.242;12.442;2022-12-18T04:32:05;-8.24;95.93
69503;SHT31;56704;54.242;12.442;2022-12-18T04:34:32;-8.29;95.95
69503;SHT31;56704;54.242;12.442;2022-12-18T04:36:59;-8.29;95.76
69503;SHT31;56704;54.242;12.442;2022-12-18T04:39:26;-8.34;95.67
69503;SHT31;56704;54.242;12.442;2022-12-18T04:41:52;-8.36;95.61
69503;SHT31;56704;54.242;12.442;2022-12-18T04:44:19;-8.38;95.45
69503;SHT31;56704;54.242;12.442;2022-12-18T04:46:45;-8.41;95.50
69503;SHT31;56704;54.242;12.442;2022-12-18T04:49:13;-8.44;95.55
69503;SHT31;56704;54.242;12.442;2022-12-18T04:51:40;-8.50;95.47
69503;SHT31;56704;54.242;12.442;2022-12-18T04:54:07;-8.51;95.75
69503;SHT31;56704;54.242;12.442;2022-12-18T04:56:33;-8.46;95.78
69503;SHT31;56704;54.242;12.442;2022-12-18T04:59:00;-8.47;95.82
69503;SHT31;56704;54.242;12.442;2022-12-18T05:01:27;-8.44;95.68
69503;SHT31;56704;54.242;12.442;2022-12-18T05:03:53;-8.51;95.31
69503;SHT31;56704;54.242;12.442;2022-12-18T05:06:21;-8.53;95.39
69503;SHT31;56704;54.242;12.442;2022-12-18T05:08:48;-8.55;95.43
69503;SHT31;56704;54.242;12.442;2022-12-18T05:11:15;-8.61;95.40
69503;SHT31;56704;54.242;12.442;2022-12-18T05:13:43;-8.68;95.49
69503;SHT31;56704;54.242;12.442;2022-12-18T05:16:10;-8.69;95.78
69503;SHT31;56704;54.242;12.442;2022-12-18T05:18:37;-8.68;95.97
69503;SHT31;56704;54.242;12.442;2022-12-18T05:21:04;-8.61;96.12
69503;SHT31;56704;54.242;12.442;2022-12-18T05:23:32;-8.55;96.12
69503;SHT31;56704;54.242;12.442;2022-12-18T05:26:02;-8.50;96.26
69503;SHT31;56704;54.242;12.442;2022-12-18T05:28:30;-8.37;96.12
69503;SHT31;56704;54.242;12.442;2022-12-18T05:30:59;-8.37;96.20
69503;SHT31;56704;54.242;12.442;2022-12-18T05:33:28;-8.24;96.17
69503;SHT31;56704;54.242;12.442;2022-12-18T05:35:57;-8.20;96.01
69503;SHT31;56704;54.242;12.442;2022-12-18T05:38:25;-8.22;95.87
69503;SHT31;56704;54.242;12.442;2022-12-18T05:40:54;-8.13;95.72
69503;SHT31;56704;54.242;12.442;2022-12-18T05:43:22;-8.07;95.42
69503;SHT31;56704;54.242;12.442;2022-12-18T05:45:49;-8.09;95.29
69503;SHT31;56704;54.242;12.442;2022-12-18T05:48:17;-8.10;95.21
69503;SHT31;56704;54.242;12.442;2022-12-18T05:50:45;-8.12;95.28
69503;SHT31;56704;54.242;12.442;2022-12-18T05:53:13;-8.07;95.40
69503;SHT31;56704;54.242;12.442;2022-12-18T05:55:41;-8.09;95.33
69503;SHT31;56704;54.242;12.442;2022-12-18T05:58:10;-8.13;95.12
69503;SHT31;56704;54.242;12.442;2022-12-18T06:00:39;-8.17;95.25
69503;SHT31;56704;54.242;12.442;2022-12-18T06:03:06;-8.20;95.40
69503;SHT31;56704;54.242;12.442;2022-12-18T06:05:34;-8.24;95.21
69503;SHT31;56704;54.242;12.442;2022-12-18T06:08:02;-8.29;95.31
69503;SHT31;56704;54.242;12.442;2022-12-18T06:10:29;-8.26;95.41
69503;SHT31;56704;54.242;12.442;2022-12-18T06:12:56;-8.29;95.63
69503;SHT31;56704;54.242;12.442;2022-12-18T06:15:24;-8.27;95.78
69503;SHT31;56704;54.242;12.442;2022-12-18T06:17:51;-8.30;95.69
69503;SHT31;56704;54.242;12.442;2022-12-18T06:20:18;-8.27;95.71
69503;SHT31;56704;54.242;12.442;2022-12-18T06:22:45;-8.26;95.76
69503;SHT31;56704;54.242;12.442;2022-12-18T06:25:11;-8.29;95.80
69503;SHT31;56704;54.242;12.442;2022-12-18T06:27:38;-8.19;95.70
69503;SHT31;56704;54.242;12.442;2022-12-18T06:30:06;-8.20;95.14
69503;SHT31;56704;54.242;12.442;2022-12-18T06:32:34;-8.24;95.21
69503;SHT31;56704;54.242;12.442;2022-12-18T06:35:01;-8.26;95.24
69503;SHT31;56704;54.242;12.442;2022-12-18T06:37:28;-8.24;95.05
69503;SHT31;56704;54.242;12.442;2022-12-18T06:39:54;-8.29;94.93
69503;SHT31;56704;54.242;12.442;2022-12-18T06:42:21;-8.32;95.21
69503;SHT31;56704;54.242;12.442;2022-12-18T06:44:48;-8.36;95.17
69503;SHT31;56704;54.242;12.442;2022-12-18T06:47:14;-8.32;95.23
69503;SHT31;56704;54.242;12.442;2022-12-18T06:49:42;-8.36;94.98
69503;SHT31;56704;54.242;12.442;2022-12-18T06:52:09;-8.27;95.08
69503;SHT31;56704;54.242;12.442;2022-12-18T06:54:36;-8.22;94.99
69503;SHT31;56704;54.242;12.442;2022-12-18T06:57:02;-8.17;95.02
69503;SHT31;56704;54.242;12.442;2022-12-18T06:59:29;-8.10;94.76
69503;SHT31;56704;54.242;12.442;2022-12-18T07:01:56;-8.19;94.53
69503;SHT31;56704;54.242;12.442;2022-12-18T07:04:27;-8.19;94.76
69503;SHT31;56704;54.242;12.442;2022-12-18T07:07:20;-8.23;94.72
69503;SHT31;56704;54.242;12.442;2022-12-18T07:09:46;-8.30;94.81
69503;SHT31;56704;54.242;12.442;2022-12-18T07:12:14;-8.37;94.96
69503;SHT31;56704;54.242;12.442;2022-12-18T07:14:41;-8.44;94.86
69503;SHT31;56704;54.242;12.442;2022-12-18T07:17:07;-8.48;95.01
69503;SHT31;56704;54.242;12.442;2022-12-18T07:19:34;-8.51;94.97
69503;SHT31;56704;54.242;12.442;2022-12-18T07:22:01;-8.47;95.01
69503;SHT31;56704;54.242;12.442;2022-12-18T07:24:29;-8.43;94.85
69503;SHT31;56704;54.242;12.442;2022-12-18T07:26:55;-8.37;94.78
69503;SHT31;56704;54.242;12.442;2022-12-18T07:29:22;-8.34;94.74
69503;SHT31;56704;54.242;12.442;2022-12-18T07:31:48;-8.37;94.62
69503;SHT31;56704;54.242;12.442;2022-12-18T07:34:15;-8.40;94.68
69503;SHT31;56704;54.242;12.442;2022-12-18T07:36:42;-8.36;94.49
69503;SHT31;56704;54.242;12.442;2022-12-18T07:39:10;-8.37;94.27
69503;SHT31;56704;54.242;12.442;2022-12-18T07:41:38;-8.40;94.29
69503;SHT31;56704;54.242;12.442;2022-12-18T07:44:09;-8.43;94.32
69503;SHT31;56704;54.242;12.442;2022-12-18T07:46:35;-8.41;94.46
69503;SHT31;56704;54.242;12.442;2022-12-18T07:49:02;-8.34;94.38
69503;SHT31;56704;54.242;12.442;2022-12-18T07:51:28;-8.30;94.13
69503;SHT31;56704;54.242;12.442;2022-12-18T07:53:56;-8.29;94.10
69503;SHT31;56704;54.242;12.442;2022-12-18T07:56:22;-8.27;94.02
69503;SHT31;56704;54.242;12.442;2022-12-18T07:58:50;-8.26;94.08
69503;SHT31;56704;54.242;12.442;2022-12-18T08:01:17;-8.22;94.03
69503;SHT31;56704;54.242;12.442;2022-12-18T08:03:44;-8.13;93.80
69503;SHT31;56704;54.242;12.442;2022-12-18T08:06:10;-8.05;93.75
69503;SHT31;56704;54.242;12.442;2022-12-18T08:08:37;-7.93;93.95
69503;SHT31;56704;54.242;12.442;2022-12-18T08:11:05;-7.75;93.50
69503;SHT31;56704;54.242;12.442;2022-12-18T08:13:31;-7.61;93.20
69503;SHT31;56704;54.242;12.442;2022-12-18T08:16:01;-7.51;93.08
69503;SHT31;56704;54.242;12.442;2022-12-18T08:18:28;-7.47;92.25
69503;SHT31;56704;54.242;12.442;2022-12-18T08:20:55;-7.41;92.14
69503;SHT31;56704;54.242;12.442;2022-12-18T08:23:22;-7.43;91.97
69503;SHT31;56704;54.242;12.442;2022-12-18T08:25:48;-7.41;91.84
69503;SHT31;56704;54.242;12.442;2022-12-18T08:28:16;-7.40;91.85
69503;SHT31;56704;54.242;12.442;2022-12-18T08:30:42;-7.40;91.70
69503;SHT31;56704;54.242;12.442;2022-12-18T08:33:11;-7.30;91.48
69503;SHT31;56704;54.242;12.442;2022-12-18T08:35:38;-7.04;90.95
69503;SHT31;56704;54.242;12.442;2022-12-18T08:38:04;-6.83;91.14
69503;SHT31;56704;54.242;12.442;2022-12-18T08:40:31;-6.49;90.04
69503;SHT31;56704;54.242;12.442;2022-12-18T08:42:58;-6.28;89.72
69503;SHT31;56704;54.242;12.442;2022-12-18T08:45:42;-6.09;89.13
69503;SHT31;56704;54.242;12.442;2022-12-18T08:48:09;-6.01;88.10
69503;SHT31;56704;54.242;12.442;2022-12-18T08:50:37;-5.94;87.97
69503;SHT31;56704;54.242;12.442;2022-12-18T08:53:03;-5.72;87.98
69503;SHT31;56704;54.242;12.442;2022-12-18T08:55:30;-5.58;88.20
69503;SHT31;56704;54.242;12.442;2022-12-18T08:57:56;-5.63;87.31
69503;SHT31;56704;54.242;12.442;2022-12-18T09:00:23;-5.68;87.41
69503;SHT31;56704;54.242;12.442;2022-12-18T09:02:49;-5.55;88.36
69503;SHT31;56704;54.242;12.442;2022-12-18T09:05:16;-5.45;87.74
69503;SHT31;56704;54.242;12.442;2022-12-18T09:07:44;-5.31;87.75
69503;SHT31;56704;54.242;12.442;2022-12-18T09:10:10;-5.21;86.61
69503;SHT31;56704;54.242;12.442;2022-12-18T09:12:37;-5.20;86.01
69503;SHT31;56704;54.242;12.442;2022-12-18T09:15:05;-5.17;86.05
69503;SHT31;56704;54.242;12.442;2022-12-18T09:17:31;-4.79;86.85
69503;SHT31;56704;54.242;12.442;2022-12-18T09:19:58;-4.91;85.36
69503;SHT31;56704;54.242;12.442;2022-12-18T09:22:24;-4.91;84.83
69503;SHT31;56704;54.242;12.442;2022-12-18T09:24:52;-4.75;85.12
69503;SHT31;56704;54.242;12.442;2022-12-18T09:27:19;-4.48;86.09
69503;SHT31;56704;54.242;12.442;2022-12-18T09:29:45;-4.49;85.07
69503;SHT31;56704;54.242;12.442;2022-12-18T09:32:12;-4.53;84.22
69503;SHT31;56704;54.242;12.442;2022-12-18T09:34:38;-4.63;84.33
69503;SHT31;56704;54.242;12.442;2022-12-18T09:37:05;-4.59;84.46
69503;SHT31;56704;54.242;12.442;2022-12-18T09:39:32;-4.49;84.25
69503;SHT31;56704;54.242;12.442;2022-12-18T09:42:00;-4.66;84.80
69503;SHT31;56704;54.242;12.442;2022-12-18T09:44:28;-4.73;84.29
69503;SHT31;56704;54.242;12.442;2022-12-18T09:47:03;-4.65;85.06
69503;SHT31;56704;54.242;12.442;2022-12-18T09:49:38;-4.70;84.08
69503;SHT31;56704;54.242;12.442;2022-12-18T09:52:11;-4.60;84.91
69503;SHT31;56704;54.242;12.442;2022-12-18T09:54:40;-4.63;83.63
69503;SHT31;56704;54.242;12.442;2022-12-18T09:57:14;-4.75;83.39
69503;SHT31;56704;54.242;12.442;2022-12-18T09:59:42;-4.45;84.52
69503;SHT31;56704;54.242;12.442;2022-12-18T10:02:18;-4.48;83.86
69503;SHT31;56704;54.242;12.442;2022-12-18T10:04:53;-4.56;84.43
69503;SHT31;56704;54.242;12.442;2022-12-18T10:07:26;-4.73;84.87
69503;SHT31;56704;54.242;12.442;2022-12-18T10:10:02;-4.60;85.85
69503;SHT31;56704;54.242;12.442;2022-12-18T10:12:36;-4.59;85.10
69503;SHT31;56704;54.242;12.442;2022-12-18T10:15:13;-4.80;84.36
69503;SHT31;56704;54.242;12.442;2022-12-18T10:17:46;-4.58;84.86
69503;SHT31;56704;54.242;12.442;2022-12-18T10:20:19;-4.28;84.50
69503;SHT31;56704;54.242;12.442;2022-12-18T10:22:53;-4.14;85.18
69503;SHT31;56704;54.242;12.442;2022-12-18T10:25:25;-4.42;83.96
69503;SHT31;56704;54.242;12.442;2022-12-18T10:27:57;-4.01;84.94
69503;SHT31;56704;54.242;12.442;2022-12-18T10:30:25;-4.05;83.91
69503;SHT31;56704;54.242;12.442;2022-12-18T10:32:52;-3.94;84.39
69503;SHT31;56704;54.242;12.442;2022-12-18T10:35:20;-4.25;83.58
69503;SHT31;56704;54.242;12.442;2022-12-18T10:38:03;-3.98;84.71
69503;SHT31;56704;54.242;12.442;2022-12-18T10:40:30;-3.91;84.94
69503;SHT31;56704;54.242;12.442;2022-12-18T10:43:05;-4.30;83.62
69503;SHT31;56704;54.242;12.442;2022-12-18T10:45:32;-4.38;84.83
69503;SHT31;56704;54.242;12.442;2022-12-18T10:47:59;-4.26;84.95
69503;SHT31;56704;54.242;12.442;2022-12-18T10:50:28;-4.44;84.62
69503;SHT31;56704;54.242;12.442;2022-12-18T10:52:57;-4.29;85.18
69503;SHT31;56704;54.242;12.442;2022-12-18T10:55:31;-4.11;84.77
69503;SHT31;56704;54.242;12.442;2022-12-18T10:58:21;-4.08;84.65
69503;SHT31;56704;54.242;12.442;2022-12-18T11:01:03;-4.02;84.31
69503;SHT31;56704;54.242;12.442;2022-12-18T11:03:32;-4.01;83.78
69503;SHT31;56704;54.242;12.442;2022-12-18T11:06:07;-4.07;84.20
69503;SHT31;56704;54.242;12.442;2022-12-18T11:08:34;-4.01;83.81
69503;SHT31;56704;54.242;12.442;2022-12-18T11:11:01;-3.90;84.29
69503;SHT31;56704;54.242;12.442;2022-12-18T11:13:30;-3.90;84.51
69503;SHT31;56704;54.242;12.442;2022-12-18T11:15:58;-3.74;84.59
69503;SHT31;56704;54.242;12.442;2022-12-18T11:18:27;-3.62;83.70
69503;SHT31;56704;54.242;12.442;2022-12-18T11:20:56;-3.40;83.89
69503;SHT31;56704;54.242;12.442;2022-12-18T11:23:24;-3.26;84.08
69503;SHT31;56704;54.242;12.442;2022-12-18T11:25:53;-3.36;83.74
69503;SHT31;56704;54.242;12.442;2022-12-18T11:28:34;-3.09;83.97
69503;SHT31;56704;54.242;12.442;2022-12-18T11:31:22;-3.01;83.51
69503;SHT31;56704;54.242;12.442;2022-12-18T11:34:04;-3.29;83.84
69503;SHT31;56704;54.242;12.442;2022-12-18T11:36:38;-3.23;84.29
69503;SHT31;56704;54.242;12.442;2022-12-18T11:39:11;-3.15;83.75
69503;SHT31;56704;54.242;12.442;2022-12-18T11:41:42;-3.55;83.92
69503;SHT31;56704;54.242;12.442;2022-12-18T11:44:35;-3.46;84.58
69503;SHT31;56704;54.242;12.442;2022-12-18T11:47:11;-3.42;84.85
69503;SHT31;56704;54.242;12.442;2022-12-18T11:49:41;-3.23;84.27
69503;SHT31;56704;54.242;12.442;2022-12-18T11:52:19;-3.11;83.36
69503;SHT31;56704;54.242;12.442;2022-12-18T11:54:51;-2.91;83.66
69503;SHT31;56704;54.242;12.442;2022-12-18T11:57:26;-3.09;83.16
69503;SHT31;56704;54.242;12.442;2022-12-18T12:00:02;-3.20;83.99
69503;SHT31;56704;54.242;12.442;2022-12-18T12:02:42;-3.15;84.16
69503;SHT31;56704;54.242;12.442;2022-12-18T12:05:37;-3.11;84.52
69503;SHT31;56704;54.242;12.442;2022-12-18T12:08:15;-3.19;84.33
69503;SHT31;56704;54.242;12.442;2022-12-18T12:10:52;-3.16;84.25
69503;SHT31;56704;54.242;12.442;2022-12-18T12:13:32;-3.28;83.90
69503;SHT31;56704;54.242;12.442;2022-12-18T12:16:12;-3.09;84.33
69503;SHT31;56704;54.242;12.442;2022-12-18T12:18:49;-3.28;84.42
69503;SHT31;56704;54.242;12.442;2022-12-18T12:21:21;-3.19;84.81
69503;SHT31;56704;54.242;12.442;2022-12-18T12:23:58;-3.20;85.38
69503;SHT31;56704;54.242;12.442;2022-12-18T12:26:30;-3.19;85.63
69503;SHT31;56704;54.242;12.442;2022-12-18T12:29:10;-3.28;84.91
69503;SHT31;56704;54.242;12.442;2022-12-18T12:31:53;-3.32;85.45
69503;SHT31;56704;54.242;12.442;2022-12-18T12:34:25;-3.23;84.41
69503;SHT31;56704;54.242;12.442;2022-12-18T12:37:11;-2.98;85.24
69503;SHT31;56704;54.242;12.442;2022-12-18T12:39:44;-2.89;83.56
69503;SHT31;56704;54.242;12.442;2022-12-18T12:42:17;-3.05;83.07
69503;SHT31;56704;54.242;12.442;2022-12-18T12:45:05;-3.01;83.13
69503;SHT31;56704;54.242;12.442;2022-12-18T12:47:38;-2.60;82.90
69503;SHT31;56704;54.242;12.442;2022-12-18T12:50:13;-2.35;82.28
69503;SHT31;56704;54.242;12.442;2022-12-18T12:52:43;-2.58;82.06
69503;SHT31;56704;54.242;12.442;2022-12-18T12:55:14;-2.97;82.48
69503;SHT31;56704;54.242;12.442;2022-12-18T12:57:45;-3.15;84.47
69503;SHT31;56704;54.242;12.442;2022-12-18T13:00:16;-3.35;85.13
69503;SHT31;56704;54.242;12.442;2022-12-18T13:02:51;-3.63;85.22
69503;SHT31;56704;54.242;12.442;2022-12-18T13:05:25;-3.71;86.42
69503;SHT31;56704;54.242;12.442;2022-12-18T13:07:56;-3.86;86.59
69503;SHT31;56704;54.242;12.442;2022-12-18T13:10:26;-3.97;87.06
69503;SHT31;56704;54.242;12.442;2022-12-18T13:12:55;-4.22;87.18
69503;SHT31;56704;54.242;12.442;2022-12-18T13:15:23;-4.18;88.13
69503;SHT31;56704;54.242;12.442;2022-12-18T13:18:05;-4.26;87.82
69503;SHT31;56704;54.242;12.442;2022-12-18T13:20:36;-4.30;88.29
69503;SHT31;56704;54.242;12.442;2022-12-18T13:23:19;-4.41;87.96
69503;SHT31;56704;54.242;12.442;2022-12-18T13:25:46;-4.36;88.17
69503;SHT31;56704;54.242;12.442;2022-12-18T13:28:13;-4.53;88.33
69503;SHT31;56704;54.242;12.442;2022-12-18T13:30:54;-4.63;88.62
69503;SHT31;56704;54.242;12.442;2022-12-18T13:33:40;-4.69;88.92
69503;SHT31;56704;54.242;12.442;2022-12-18T13:36:16;-4.73;89.20
69503;SHT31;56704;54.242;12.442;2022-12-18T13:39:21;-4.89;89.68
69503;SHT31;56704;54.242;12.442;2022-12-18T13:41:50;-4.94;89.90
69503;SHT31;56704;54.242;12.442;2022-12-18T13:44:25;-4.96;90.19
69503;SHT31;56704;54.242;12.442;2022-12-18T13:46:54;-5.01;90.68
69503;SHT31;56704;54.242;12.442;2022-12-18T13:49:26;-5.10;90.72
69503;SHT31;56704;54.242;12.442;2022-12-18T13:51:56;-5.28;90.80
69503;SHT31;56704;54.242;12.442;2022-12-18T13:54:28;-5.36;91.43
69503;SHT31;56704;54.242;12.442;2022-12-18T13:56:56;-5.36;91.57
69503;SHT31;56704;54.242;12.442;2022-12-18T13:59:24;-5.38;91.92
69503;SHT31;56704;54.242;12.442;2022-12-18T14:01:53;-5.35;91.81
69503;SHT31;56704;54.242;12.442;2022-12-18T14:04:27;-5.39;92.14
69503;SHT31;56704;54.242;12.442;2022-12-18T14:07:01;-5.39;92.13
69503;SHT31;56704;54.242;12.442;2022-12-18T14:09:34;-5.42;92.17
69503;SHT31;56704;54.242;12.442;2022-12-18T14:12:02;-5.43;92.33
69503;SHT31;56704;54.242;12.442;2022-12-18T14:14:48;-5.45;92.48
69503;SHT31;56704;54.242;12.442;2022-12-18T14:17:19;-5.47;92.55
69503;SHT31;56704;54.242;12.442;2022-12-18T14:19:50;-5.48;92.90
69503;SHT31;56704;54.242;12.442;2022-12-18T14:22:19;-5.51;92.63
69503;SHT31;56704;54.242;12.442;2022-12-18T14:24:46;-5.55;92.86
69503;SHT31;56704;54.242;12.442;2022-12-18T14:27:22;-5.59;93.03
69503;SHT31;56704;54.242;12.442;2022-12-18T14:29:49;-5.62;93.25
69503;SHT31;56704;54.242;12.442;2022-12-18T14:32:19;-5.65;93.14
69503;SHT31;56704;54.242;12.442;2022-12-18T14:34:49;-5.72;93.37
69503;SHT31;56704;54.242;12.442;2022-12-18T14:37:17;-5.78;93.46
69503;SHT31;56704;54.242;12.442;2022-12-18T14:39:59;-5.79;93.56
69503;SHT31;56704;54.242;12.442;2022-12-18T14:42:26;-5.85;93.51
69503;SHT31;56704;54.242;12.442;2022-12-18T14:47:59;-5.93;93.95
69503;SHT31;56704;54.242;12.442;2022-12-18T14:50:27;-5.97;94.11
69503;SHT31;56704;54.242;12.442;2022-12-18T14:52:56;-5.97;94.29
69503;SHT31;56704;54.242;12.442;2022-12-18T14:55:24;-5.96;94.23
69503;SHT31;56704;54.242;12.442;2022-12-18T14:57:55;-6.03;94.11
69503;SHT31;56704;54.242;12.442;2022-12-18T15:00:24;-6.04;94.23
69503;SHT31;56704;54.242;12.442;2022-12-18T15:02:54;-6.13;94.34
69503;SHT31;56704;54.242;12.442;2022-12-18T15:05:27;-6.17;94.52
69503;SHT31;56704;54.242;12.442;2022-12-18T15:07:55;-6.14;94.64
69503;SHT31;56704;54.242;12.442;2022-12-18T15:10:23;-6.14;94.70
69503;SHT31;56704;54.242;12.442;2022-12-18T15:13:08;-6.13;94.61
69503;SHT31;56704;54.242;12.442;2022-12-18T15:15:48;-6.14;94.69
69503;SHT31;56704;54.242;12.442;2022-12-18T15:18:16;-6.14;94.72
69503;SHT31;56704;54.242;12.442;2022-12-18T15:20:48;-6.13;94.84
69503;SHT31;56704;54.242;12.442;2022-12-18T15:23:18;-6.13;94.73
69503;SHT31;56704;54.242;12.442;2022-12-18T15:25:46;-6.15;94.76
69503;SHT31;56704;54.242;12.442;2022-12-18T15:28:18;-6.13;94.88
69503;SHT31;56704;54.242;12.442;2022-12-18T15:30:58;-6.06;94.78
69503;SHT31;56704;54.242;12.442;2022-12-18T15:33:26;-6.07;94.72
69503;SHT31;56704;54.242;12.442;2022-12-18T15:35:58;-6.09;94.52
69503;SHT31;56704;54.242;12.442;2022-12-18T15:38:25;-6.13;94.61